sensor_id;sensor_type;location;lat;lon;timestamp;P1;durP1;ratioP1;P2;durP2;ratioP2
43628;SDS011;56545;48.224;11.678;2022-11-20T00:01:03;5.30;;;2.30;;
43628;SDS011;56545;48.224;11.678;2022-11-20T00:03:30;4.45;;;2.10;;
43628;SDS011;56545;48.224;11.678;2022-11-20T00:06:02;5.93;;;2.08;;
43628;SDS011;56545;48.224;11.678;2022-11-20T00:08:30;5.45;;;2.10;;
43628;SDS011;56545;48.224;11.678;2022-11-20T00:10:56;3.67;;;2.00;;
43628;SDS011;56545;48.224;11.678;2022-11-20T00:13:22;4.15;;;2.00;;
43628;SDS011;56545;48.224;11.678;2022-11-20T00:15:48;3.80;;;2.00;;
43628;SDS011;56545;48.224;11.678;2022-11-20T00:18:21;4.82;;;2.38;;
43628;SDS011;56545;48.224;11.678;2022-11-20T00:20:47;4.60;;;2.00;;
43628;SDS011;56545;48.224;11.678;2022-11-20T00:23:12;4.28;;;2.15;;
43628;SDS011;56545;48.224;11.678;2022-11-20T00:25:38;5.18;;;2.10;;
43628;SDS011;56545;48.224;11.678;2022-11-20T00:28:04;5.60;;;2.58;;
43628;SDS011;56545;48.224;11.678;2022-11-20T00:30:30;3.58;;;1.98;;
43628;SDS011;56545;48.224;11.678;2022-11-20T00:32:56;5.97;;;2.20;;
43628;SDS011;56545;48.224;11.678;2022-11-20T00:35:23;5.10;;;2.20;;
43628;SDS011;56545;48.224;11.678;2022-11-20T00:37:49;4.78;;;2.33;;
43628;SDS011;56545;48.224;11.678;2022-11-20T00:40:15;4.38;;;1.90;;
43628;SDS011;56545;48.224;11.678;2022-11-20T00:42:41;4.43;;;2.00;;
43628;SDS011;56545;48.224;11.678;2022-11-20T00:45:06;5.10;;;2.05;;
43628;SDS011;56545;48.224;11.678;2022-11-20T00:47:33;3.50;;;1.83;;
43628;SDS011;56545;48.224;11.678;2022-11-20T00:49:59;4.93;;;2.15;;
43628;SDS011;56545;48.224;11.678;2022-11-20T00:52:24;5.10;;;2.45;;
43628;SDS011;56545;48.224;11.678;2022-11-20T00:54:50;4.38;;;2.20;;
43628;SDS011;56545;48.224;11.678;2022-11-20T00:57:16;4.15;;;2.00;;
43628;SDS011;56545;48.224;11.678;2022-11-20T00:59:42;5.15;;;2.22;;
43628;SDS011;56545;48.224;11.678;2022-11-20T01:02:08;6.38;;;2.47;;
43628;SDS011;56545;48.224;11.678;2022-11-20T01:04:34;6.45;;;2.58;;
43628;SDS011;56545;48.224;11.678;2022-11-20T01:07:00;5.13;;;2.40;;
43628;SDS011;56545;48.224;11.678;2022-11-20T01:09:26;5.07;;;2.45;;
43628;SDS011;56545;48.224;11.678;2022-11-20T01:11:51;4.85;;;2.30;;
43628;SDS011;56545;48.224;11.678;2022-11-20T01:14:18;4.32;;;2.22;;
43628;SDS011;56545;48.224;11.678;2022-11-20T01:16:46;5.88;;;2.50;;
43628;SDS011;56545;48.224;11.678;2022-11-20T01:19:15;4.18;;;2.17;;
43628;SDS011;56545;48.224;11.678;2022-11-20T01:21:46;5.90;;;2.63;;
43628;SDS011;56545;48.224;11.678;2022-11-20T01:24:16;6.32;;;2.47;;
43628;SDS011;56545;48.224;11.678;2022-11-20T01:26:44;5.55;;;2.35;;
43628;SDS011;56545;48.224;11.678;2022-11-20T01:29:13;5.07;;;2.60;;
43628;SDS011;56545;48.224;11.678;2022-11-20T01:31:44;7.15;;;3.17;;
43628;SDS011;56545;48.224;11.678;2022-11-20T01:34:11;5.95;;;2.40;;
43628;SDS011;56545;48.224;11.678;2022-11-20T01:36:38;7.50;;;3.42;;
43628;SDS011;56545;48.224;11.678;2022-11-20T01:39:06;9.38;;;4.57;;
43628;SDS011;56545;48.224;11.678;2022-11-20T01:41:37;6.72;;;3.13;;
43628;SDS011;56545;48.224;11.678;2022-11-20T01:44:23;9.82;;;4.85;;
43628;SDS011;56545;48.224;11.678;2022-11-20T01:47:11;8.27;;;4.28;;
43628;SDS011;56545;48.224;11.678;2022-11-20T01:49:42;9.80;;;5.68;;
43628;SDS011;56545;48.224;11.678;2022-11-20T01:52:25;9.02;;;4.85;;
43628;SDS011;56545;48.224;11.678;2022-11-20T01:55:17;11.27;;;6.72;;
43628;SDS011;56545;48.224;11.678;2022-11-20T01:57:46;8.35;;;4.38;;
43628;SDS011;56545;48.224;11.678;2022-11-20T02:00:14;7.47;;;4.03;;
43628;SDS011;56545;48.224;11.678;2022-11-20T02:02:43;6.80;;;3.05;;
43628;SDS011;56545;48.224;11.678;2022-11-20T02:05:18;4.78;;;2.33;;
43628;SDS011;56545;48.224;11.678;2022-11-20T02:07:50;6.30;;;2.80;;
43628;SDS011;56545;48.224;11.678;2022-11-20T02:10:17;6.05;;;2.53;;
43628;SDS011;56545;48.224;11.678;2022-11-20T02:12:43;4.82;;;2.30;;
43628;SDS011;56545;48.224;11.678;2022-11-20T02:15:28;5.72;;;2.53;;
43628;SDS011;56545;48.224;11.678;2022-11-20T02:17:54;5.97;;;2.60;;
43628;SDS011;56545;48.224;11.678;2022-11-20T02:20:20;6.20;;;2.72;;
43628;SDS011;56545;48.224;11.678;2022-11-20T02:22:51;5.05;;;2.40;;
43628;SDS011;56545;48.224;11.678;2022-11-20T02:25:22;4.78;;;2.50;;
43628;SDS011;56545;48.224;11.678;2022-11-20T02:27:50;4.82;;;2.08;;
43628;SDS011;56545;48.224;11.678;2022-11-20T02:30:16;4.20;;;2.28;;
43628;SDS011;56545;48.224;11.678;2022-11-20T02:32:42;4.70;;;2.30;;
43628;SDS011;56545;48.224;11.678;2022-11-20T02:35:54;4.95;;;2.70;;
43628;SDS011;56545;48.224;11.678;2022-11-20T02:37:56;5.10;;;2.33;;
43628;SDS011;56545;48.224;11.678;2022-11-20T02:40:24;4.38;;;2.47;;
43628;SDS011;56545;48.224;11.678;2022-11-20T02:42:53;5.05;;;2.22;;
43628;SDS011;56545;48.224;11.678;2022-11-20T02:45:20;5.75;;;2.40;;
43628;SDS011;56545;48.224;11.678;2022-11-20T02:47:47;4.97;;;2.40;;
43628;SDS011;56545;48.224;11.678;2022-11-20T02:50:13;6.55;;;2.60;;
43628;SDS011;56545;48.224;11.678;2022-11-20T02:52:39;6.35;;;2.13;;
43628;SDS011;56545;48.224;11.678;2022-11-20T02:55:05;5.70;;;2.53;;
43628;SDS011;56545;48.224;11.678;2022-11-20T02:57:32;5.85;;;2.25;;
43628;SDS011;56545;48.224;11.678;2022-11-20T02:59:58;5.57;;;2.70;;
43628;SDS011;56545;48.224;11.678;2022-11-20T03:02:23;5.47;;;2.67;;
43628;SDS011;56545;48.224;11.678;2022-11-20T03:04:49;5.18;;;2.50;;
43628;SDS011;56545;48.224;11.678;2022-11-20T03:07:15;5.90;;;2.42;;
43628;SDS011;56545;48.224;11.678;2022-11-20T03:09:41;7.07;;;2.35;;
43628;SDS011;56545;48.224;11.678;2022-11-20T03:12:07;5.28;;;2.30;;
43628;SDS011;56545;48.224;11.678;2022-11-20T03:14:34;5.25;;;2.40;;
43628;SDS011;56545;48.224;11.678;2022-11-20T03:17:00;5.15;;;2.45;;
43628;SDS011;56545;48.224;11.678;2022-11-20T03:19:26;4.40;;;2.40;;
43628;SDS011;56545;48.224;11.678;2022-11-20T03:21:51;6.63;;;2.40;;
43628;SDS011;56545;48.224;11.678;2022-11-20T03:24:17;4.72;;;2.47;;
43628;SDS011;56545;48.224;11.678;2022-11-20T03:26:43;6.28;;;2.60;;
43628;SDS011;56545;48.224;11.678;2022-11-20T03:29:09;5.95;;;2.63;;
43628;SDS011;56545;48.224;11.678;2022-11-20T03:31:36;5.25;;;2.50;;
43628;SDS011;56545;48.224;11.678;2022-11-20T03:34:07;4.97;;;2.40;;
43628;SDS011;56545;48.224;11.678;2022-11-20T03:36:35;6.35;;;3.00;;
43628;SDS011;56545;48.224;11.678;2022-11-20T03:39:04;6.90;;;2.58;;
43628;SDS011;56545;48.224;11.678;2022-11-20T03:41:30;5.35;;;2.40;;
43628;SDS011;56545;48.224;11.678;2022-11-20T03:44:00;5.20;;;2.60;;
43628;SDS011;56545;48.224;11.678;2022-11-20T03:46:28;5.80;;;2.60;;
43628;SDS011;56545;48.224;11.678;2022-11-20T03:48:54;4.70;;;2.33;;
43628;SDS011;56545;48.224;11.678;2022-11-20T03:51:21;4.70;;;2.00;;
43628;SDS011;56545;48.224;11.678;2022-11-20T03:53:50;6.45;;;2.33;;
43628;SDS011;56545;48.224;11.678;2022-11-20T03:56:18;4.90;;;2.30;;
43628;SDS011;56545;48.224;11.678;2022-11-20T03:58:47;5.40;;;2.38;;
43628;SDS011;56545;48.224;11.678;2022-11-20T04:01:14;5.20;;;2.35;;
43628;SDS011;56545;48.224;11.678;2022-11-20T04:03:45;4.00;;;2.20;;
43628;SDS011;56545;48.224;11.678;2022-11-20T04:06:15;5.20;;;2.15;;
43628;SDS011;56545;48.224;11.678;2022-11-20T04:08:43;5.10;;;2.30;;
43628;SDS011;56545;48.224;11.678;2022-11-20T04:11:10;5.15;;;2.30;;
43628;SDS011;56545;48.224;11.678;2022-11-20T04:13:40;5.28;;;2.40;;
43628;SDS011;56545;48.224;11.678;2022-11-20T04:16:08;5.40;;;2.40;;
43628;SDS011;56545;48.224;11.678;2022-11-20T04:18:34;5.13;;;2.13;;
43628;SDS011;56545;48.224;11.678;2022-11-20T04:21:01;5.07;;;2.08;;
43628;SDS011;56545;48.224;11.678;2022-11-20T04:23:27;4.15;;;2.22;;
43628;SDS011;56545;48.224;11.678;2022-11-20T04:25:53;4.47;;;2.03;;
43628;SDS011;56545;48.224;11.678;2022-11-20T04:28:19;3.63;;;1.88;;
43628;SDS011;56545;48.224;11.678;2022-11-20T04:30:45;5.18;;;2.65;;
43628;SDS011;56545;48.224;11.678;2022-11-20T04:33:11;6.55;;;2.30;;
43628;SDS011;56545;48.224;11.678;2022-11-20T04:35:37;5.03;;;2.55;;
43628;SDS011;56545;48.224;11.678;2022-11-20T04:38:03;4.22;;;2.20;;
43628;SDS011;56545;48.224;11.678;2022-11-20T04:40:29;4.28;;;2.10;;
43628;SDS011;56545;48.224;11.678;2022-11-20T04:42:56;4.32;;;2.05;;
43628;SDS011;56545;48.224;11.678;2022-11-20T04:45:22;3.20;;;1.73;;
43628;SDS011;56545;48.224;11.678;2022-11-20T04:47:48;4.15;;;1.90;;
43628;SDS011;56545;48.224;11.678;2022-11-20T04:50:14;4.47;;;1.90;;
43628;SDS011;56545;48.224;11.678;2022-11-20T04:52:40;4.28;;;1.80;;
43628;SDS011;56545;48.224;11.678;2022-11-20T04:55:06;4.60;;;1.88;;
43628;SDS011;56545;48.224;11.678;2022-11-20T04:57:32;3.33;;;1.80;;
43628;SDS011;56545;48.224;11.678;2022-11-20T04:59:58;4.10;;;1.88;;
43628;SDS011;56545;48.224;11.678;2022-11-20T05:02:24;3.65;;;1.83;;
43628;SDS011;56545;48.224;11.678;2022-11-20T05:04:50;6.30;;;1.90;;
43628;SDS011;56545;48.224;11.678;2022-11-20T05:07:16;6.00;;;2.03;;
43628;SDS011;56545;48.224;11.678;2022-11-20T05:09:42;5.05;;;2.15;;
43628;SDS011;56545;48.224;11.678;2022-11-20T05:12:08;4.50;;;1.85;;
43628;SDS011;56545;48.224;11.678;2022-11-20T05:14:34;4.50;;;2.08;;
43628;SDS011;56545;48.224;11.678;2022-11-20T05:17:00;4.85;;;2.13;;
43628;SDS011;56545;48.224;11.678;2022-11-20T05:19:26;4.47;;;2.00;;
43628;SDS011;56545;48.224;11.678;2022-11-20T05:21:52;4.47;;;1.95;;
43628;SDS011;56545;48.224;11.678;2022-11-20T05:24:18;4.60;;;2.20;;
43628;SDS011;56545;48.224;11.678;2022-11-20T05:26:44;4.05;;;1.90;;
43628;SDS011;56545;48.224;11.678;2022-11-20T05:29:13;5.45;;;2.13;;
43628;SDS011;56545;48.224;11.678;2022-11-20T05:31:39;4.55;;;2.10;;
43628;SDS011;56545;48.224;11.678;2022-11-20T05:34:06;4.03;;;2.10;;
43628;SDS011;56545;48.224;11.678;2022-11-20T05:36:32;4.55;;;2.17;;
43628;SDS011;56545;48.224;11.678;2022-11-20T05:38:58;5.00;;;2.00;;
43628;SDS011;56545;48.224;11.678;2022-11-20T05:41:25;4.32;;;1.98;;
43628;SDS011;56545;48.224;11.678;2022-11-20T05:43:51;4.07;;;2.20;;
43628;SDS011;56545;48.224;11.678;2022-11-20T05:46:18;4.40;;;1.88;;
43628;SDS011;56545;48.224;11.678;2022-11-20T05:48:45;3.90;;;1.83;;
43628;SDS011;56545;48.224;11.678;2022-11-20T05:51:13;4.18;;;1.90;;
43628;SDS011;56545;48.224;11.678;2022-11-20T05:53:41;5.22;;;1.83;;
43628;SDS011;56545;48.224;11.678;2022-11-20T05:56:09;3.67;;;2.00;;
43628;SDS011;56545;48.224;11.678;2022-11-20T05:58:37;5.50;;;2.15;;
43628;SDS011;56545;48.224;11.678;2022-11-20T06:01:07;7.03;;;2.10;;
43628;SDS011;56545;48.224;11.678;2022-11-20T06:03:37;4.40;;;1.75;;
43628;SDS011;56545;48.224;11.678;2022-11-20T06:06:04;4.03;;;2.00;;
43628;SDS011;56545;48.224;11.678;2022-11-20T06:08:31;3.88;;;2.03;;
43628;SDS011;56545;48.224;11.678;2022-11-20T06:10:57;5.13;;;2.20;;
43628;SDS011;56545;48.224;11.678;2022-11-20T06:13:23;4.85;;;2.40;;
43628;SDS011;56545;48.224;11.678;2022-11-20T06:15:50;3.15;;;1.67;;
43628;SDS011;56545;48.224;11.678;2022-11-20T06:18:17;4.40;;;2.20;;
43628;SDS011;56545;48.224;11.678;2022-11-20T06:20:43;4.65;;;2.10;;
43628;SDS011;56545;48.224;11.678;2022-11-20T06:23:09;3.28;;;1.83;;
43628;SDS011;56545;48.224;11.678;2022-11-20T06:25:39;3.75;;;1.90;;
43628;SDS011;56545;48.224;11.678;2022-11-20T06:28:05;4.20;;;1.90;;
43628;SDS011;56545;48.224;11.678;2022-11-20T06:30:32;3.95;;;1.83;;
43628;SDS011;56545;48.224;11.678;2022-11-20T06:32:58;4.03;;;1.88;;
43628;SDS011;56545;48.224;11.678;2022-11-20T06:35:24;4.38;;;1.90;;
43628;SDS011;56545;48.224;11.678;2022-11-20T06:37:50;4.13;;;2.00;;
43628;SDS011;56545;48.224;11.678;2022-11-20T06:40:15;4.15;;;2.05;;
43628;SDS011;56545;48.224;11.678;2022-11-20T06:42:41;4.00;;;1.90;;
43628;SDS011;56545;48.224;11.678;2022-11-20T06:45:07;3.60;;;2.00;;
43628;SDS011;56545;48.224;11.678;2022-11-20T06:47:34;4.35;;;1.92;;
43628;SDS011;56545;48.224;11.678;2022-11-20T06:50:00;2.88;;;1.70;;
43628;SDS011;56545;48.224;11.678;2022-11-20T06:52:26;4.22;;;2.00;;
43628;SDS011;56545;48.224;11.678;2022-11-20T06:54:51;5.95;;;2.35;;
43628;SDS011;56545;48.224;11.678;2022-11-20T06:57:17;4.65;;;1.88;;
43628;SDS011;56545;48.224;11.678;2022-11-20T06:59:43;6.15;;;2.30;;
43628;SDS011;56545;48.224;11.678;2022-11-20T07:02:10;5.43;;;2.50;;
43628;SDS011;56545;48.224;11.678;2022-11-20T07:04:37;6.03;;;3.15;;
43628;SDS011;56545;48.224;11.678;2022-11-20T07:07:03;4.78;;;2.30;;
43628;SDS011;56545;48.224;11.678;2022-11-20T07:09:30;3.85;;;1.83;;
43628;SDS011;56545;48.224;11.678;2022-11-20T07:11:56;5.25;;;2.40;;
43628;SDS011;56545;48.224;11.678;2022-11-20T07:14:21;4.95;;;2.40;;
43628;SDS011;56545;48.224;11.678;2022-11-20T07:16:47;4.78;;;1.88;;
43628;SDS011;56545;48.224;11.678;2022-11-20T07:19:13;4.18;;;1.88;;
43628;SDS011;56545;48.224;11.678;2022-11-20T07:21:39;3.63;;;1.80;;
43628;SDS011;56545;48.224;11.678;2022-11-20T07:24:05;3.97;;;2.05;;
43628;SDS011;56545;48.224;11.678;2022-11-20T07:26:31;2.78;;;1.45;;
43628;SDS011;56545;48.224;11.678;2022-11-20T07:28:57;2.97;;;1.60;;
43628;SDS011;56545;48.224;11.678;2022-11-20T07:31:23;3.05;;;1.30;;
43628;SDS011;56545;48.224;11.678;2022-11-20T07:33:49;4.50;;;1.50;;
43628;SDS011;56545;48.224;11.678;2022-11-20T07:36:15;3.85;;;1.67;;
43628;SDS011;56545;48.224;11.678;2022-11-20T07:38:41;3.90;;;1.67;;
43628;SDS011;56545;48.224;11.678;2022-11-20T07:41:06;4.72;;;1.70;;
43628;SDS011;56545;48.224;11.678;2022-11-20T07:43:32;3.50;;;1.58;;
43628;SDS011;56545;48.224;11.678;2022-11-20T07:45:58;3.72;;;1.70;;
43628;SDS011;56545;48.224;11.678;2022-11-20T07:48:25;3.40;;;1.50;;
43628;SDS011;56545;48.224;11.678;2022-11-20T07:50:57;3.90;;;1.67;;
43628;SDS011;56545;48.224;11.678;2022-11-20T07:53:23;2.90;;;1.57;;
43628;SDS011;56545;48.224;11.678;2022-11-20T07:55:49;3.53;;;1.60;;
43628;SDS011;56545;48.224;11.678;2022-11-20T07:58:17;3.80;;;1.70;;
43628;SDS011;56545;48.224;11.678;2022-11-20T08:00:44;3.50;;;1.80;;
43628;SDS011;56545;48.224;11.678;2022-11-20T08:03:11;4.05;;;1.63;;
43628;SDS011;56545;48.224;11.678;2022-11-20T08:05:37;4.57;;;1.88;;
43628;SDS011;56545;48.224;11.678;2022-11-20T08:08:03;6.45;;;2.80;;
43628;SDS011;56545;48.224;11.678;2022-11-20T08:10:29;4.80;;;1.80;;
43628;SDS011;56545;48.224;11.678;2022-11-20T08:12:55;3.63;;;1.80;;
43628;SDS011;56545;48.224;11.678;2022-11-20T08:15:39;3.90;;;1.75;;
43628;SDS011;56545;48.224;11.678;2022-11-20T08:18:06;4.18;;;2.00;;
43628;SDS011;56545;48.224;11.678;2022-11-20T08:20:36;5.75;;;2.33;;
43628;SDS011;56545;48.224;11.678;2022-11-20T08:23:04;3.92;;;1.70;;
43628;SDS011;56545;48.224;11.678;2022-11-20T08:25:32;5.03;;;1.98;;
43628;SDS011;56545;48.224;11.678;2022-11-20T08:27:59;4.63;;;2.08;;
43628;SDS011;56545;48.224;11.678;2022-11-20T08:30:27;3.70;;;1.73;;
43628;SDS011;56545;48.224;11.678;2022-11-20T08:32:54;5.20;;;2.53;;
43628;SDS011;56545;48.224;11.678;2022-11-20T08:35:25;4.25;;;2.08;;
43628;SDS011;56545;48.224;11.678;2022-11-20T08:37:51;3.95;;;1.90;;
43628;SDS011;56545;48.224;11.678;2022-11-20T08:40:17;4.05;;;2.10;;
43628;SDS011;56545;48.224;11.678;2022-11-20T08:42:49;3.30;;;1.85;;
43628;SDS011;56545;48.224;11.678;2022-11-20T08:47:43;4.72;;;1.95;;
43628;SDS011;56545;48.224;11.678;2022-11-20T08:50:10;4.57;;;2.25;;
43628;SDS011;56545;48.224;11.678;2022-11-20T08:52:36;4.57;;;1.98;;
43628;SDS011;56545;48.224;11.678;2022-11-20T08:55:03;4.00;;;2.00;;
43628;SDS011;56545;48.224;11.678;2022-11-20T08:57:33;3.90;;;1.80;;
43628;SDS011;56545;48.224;11.678;2022-11-20T09:00:00;4.13;;;1.88;;
43628;SDS011;56545;48.224;11.678;2022-11-20T09:02:26;4.95;;;1.90;;
43628;SDS011;56545;48.224;11.678;2022-11-20T09:04:52;4.15;;;2.10;;
43628;SDS011;56545;48.224;11.678;2022-11-20T09:07:18;4.05;;;1.70;;
43628;SDS011;56545;48.224;11.678;2022-11-20T09:09:44;4.35;;;2.00;;
43628;SDS011;56545;48.224;11.678;2022-11-20T09:12:10;5.60;;;2.30;;
43628;SDS011;56545;48.224;11.678;2022-11-20T09:14:36;4.85;;;2.00;;
43628;SDS011;56545;48.224;11.678;2022-11-20T09:17:02;3.65;;;1.65;;
43628;SDS011;56545;48.224;11.678;2022-11-20T09:19:28;3.30;;;1.50;;
43628;SDS011;56545;48.224;11.678;2022-11-20T09:21:54;4.35;;;1.50;;
43628;SDS011;56545;48.224;11.678;2022-11-20T09:24:20;4.32;;;1.90;;
43628;SDS011;56545;48.224;11.678;2022-11-20T09:26:46;4.97;;;1.92;;
43628;SDS011;56545;48.224;11.678;2022-11-20T09:29:12;2.80;;;1.52;;
43628;SDS011;56545;48.224;11.678;2022-11-20T09:31:38;4.40;;;1.70;;
43628;SDS011;56545;48.224;11.678;2022-11-20T09:34:04;3.50;;;1.60;;
43628;SDS011;56545;48.224;11.678;2022-11-20T09:36:30;3.47;;;1.63;;
43628;SDS011;56545;48.224;11.678;2022-11-20T09:38:56;4.95;;;1.90;;
43628;SDS011;56545;48.224;11.678;2022-11-20T09:41:39;4.38;;;2.10;;
43628;SDS011;56545;48.224;11.678;2022-11-20T09:52:33;3.63;;;1.70;;
43628;SDS011;56545;48.224;11.678;2022-11-20T09:55:11;3.78;;;1.67;;
43628;SDS011;56545;48.224;11.678;2022-11-20T09:57:40;3.53;;;1.55;;
43628;SDS011;56545;48.224;11.678;2022-11-20T10:00:09;3.28;;;1.60;;
43628;SDS011;56545;48.224;11.678;2022-11-20T10:05:42;3.03;;;1.40;;
43628;SDS011;56545;48.224;11.678;2022-11-20T10:10:49;3.63;;;1.50;;
43628;SDS011;56545;48.224;11.678;2022-11-20T10:21:35;3.15;;;1.60;;
43628;SDS011;56545;48.224;11.678;2022-11-20T10:29:35;3.13;;;1.40;;
43628;SDS011;56545;48.224;11.678;2022-11-20T10:32:04;3.83;;;1.92;;
43628;SDS011;56545;48.224;11.678;2022-11-20T10:37:13;2.83;;;1.60;;
43628;SDS011;56545;48.224;11.678;2022-11-20T10:39:51;3.60;;;1.67;;
43628;SDS011;56545;48.224;11.678;2022-11-20T10:48:05;3.10;;;1.17;;
43628;SDS011;56545;48.224;11.678;2022-11-20T10:50:40;4.30;;;1.30;;
43628;SDS011;56545;48.224;11.678;2022-11-20T10:53:40;3.35;;;1.35;;
43628;SDS011;56545;48.224;11.678;2022-11-20T10:56:39;2.97;;;1.30;;
43628;SDS011;56545;48.224;11.678;2022-11-20T11:01:49;3.03;;;1.20;;
43628;SDS011;56545;48.224;11.678;2022-11-20T11:04:19;4.10;;;1.33;;
43628;SDS011;56545;48.224;11.678;2022-11-20T11:07:01;2.75;;;1.10;;
43628;SDS011;56545;48.224;11.678;2022-11-20T11:09:50;1.60;;;1.10;;
43628;SDS011;56545;48.224;11.678;2022-11-20T11:12:19;1.77;;;1.00;;
43628;SDS011;56545;48.224;11.678;2022-11-20T11:14:47;2.30;;;1.00;;
43628;SDS011;56545;48.224;11.678;2022-11-20T11:17:28;2.28;;;1.20;;
43628;SDS011;56545;48.224;11.678;2022-11-20T11:20:15;3.00;;;1.15;;
43628;SDS011;56545;48.224;11.678;2022-11-20T11:22:47;2.33;;;1.20;;
43628;SDS011;56545;48.224;11.678;2022-11-20T11:27:59;12.38;;;5.85;;
43628;SDS011;56545;48.224;11.678;2022-11-20T11:30:28;2.30;;;1.10;;
43628;SDS011;56545;48.224;11.678;2022-11-20T11:33:06;2.97;;;1.00;;
43628;SDS011;56545;48.224;11.678;2022-11-20T11:35:39;2.90;;;1.02;;
43628;SDS011;56545;48.224;11.678;2022-11-20T11:38:12;2.00;;;1.08;;
43628;SDS011;56545;48.224;11.678;2022-11-20T11:40:41;2.03;;;1.10;;
43628;SDS011;56545;48.224;11.678;2022-11-20T11:43:16;2.55;;;1.00;;
43628;SDS011;56545;48.224;11.678;2022-11-20T11:46:24;2.53;;;1.10;;
43628;SDS011;56545;48.224;11.678;2022-11-20T11:54:24;2.45;;;1.00;;
43628;SDS011;56545;48.224;11.678;2022-11-20T11:56:58;1.85;;;0.88;;
43628;SDS011;56545;48.224;11.678;2022-11-20T12:00:29;2.40;;;0.98;;
43628;SDS011;56545;48.224;11.678;2022-11-20T12:02:32;2.63;;;1.10;;
43628;SDS011;56545;48.224;11.678;2022-11-20T12:05:18;1.73;;;0.82;;
43628;SDS011;56545;48.224;11.678;2022-11-20T12:10:53;3.20;;;1.17;;
43628;SDS011;56545;48.224;11.678;2022-11-20T12:15:59;2.72;;;1.10;;
43628;SDS011;56545;48.224;11.678;2022-11-20T12:18:28;1.95;;;0.88;;
43628;SDS011;56545;48.224;11.678;2022-11-20T12:29:23;3.13;;;1.00;;
43628;SDS011;56545;48.224;11.678;2022-11-20T12:42:57;2.88;;;1.45;;
43628;SDS011;56545;48.224;11.678;2022-11-20T12:48:58;3.35;;;1.73;;
43628;SDS011;56545;48.224;11.678;2022-11-20T12:51:53;7.80;;;3.72;;
43628;SDS011;56545;48.224;11.678;2022-11-20T12:54:50;2.58;;;1.30;;
43628;SDS011;56545;48.224;11.678;2022-11-20T13:02:48;3.40;;;1.30;;
43628;SDS011;56545;48.224;11.678;2022-11-20T13:05:51;3.40;;;1.30;;
43628;SDS011;56545;48.224;11.678;2022-11-20T13:08:36;3.60;;;1.20;;
43628;SDS011;56545;48.224;11.678;2022-11-20T13:19:19;4.78;;;1.45;;
43628;SDS011;56545;48.224;11.678;2022-11-20T13:21:47;3.55;;;1.70;;
43628;SDS011;56545;48.224;11.678;2022-11-20T13:27:05;1.80;;;1.10;;
43628;SDS011;56545;48.224;11.678;2022-11-20T13:29:37;1.63;;;0.98;;
43628;SDS011;56545;48.224;11.678;2022-11-20T13:32:16;2.78;;;1.30;;
43628;SDS011;56545;48.224;11.678;2022-11-20T13:38:02;4.20;;;1.38;;
43628;SDS011;56545;48.224;11.678;2022-11-20T13:40:30;2.00;;;1.00;;
43628;SDS011;56545;48.224;11.678;2022-11-20T13:45:55;2.72;;;1.30;;
43628;SDS011;56545;48.224;11.678;2022-11-20T13:48:38;3.80;;;1.20;;
43628;SDS011;56545;48.224;11.678;2022-11-20T13:51:15;3.42;;;1.30;;
43628;SDS011;56545;48.224;11.678;2022-11-20T14:02:27;2.80;;;1.27;;
43628;SDS011;56545;48.224;11.678;2022-11-20T14:04:56;3.20;;;1.63;;
43628;SDS011;56545;48.224;11.678;2022-11-20T14:07:24;3.83;;;1.73;;
43628;SDS011;56545;48.224;11.678;2022-11-20T14:10:01;4.32;;;2.05;;
43628;SDS011;56545;48.224;11.678;2022-11-20T14:12:30;13.60;;;7.57;;
43628;SDS011;56545;48.224;11.678;2022-11-20T14:14:57;8.20;;;4.03;;
43628;SDS011;56545;48.224;11.678;2022-11-20T14:17:31;4.25;;;2.05;;
43628;SDS011;56545;48.224;11.678;2022-11-20T14:20:00;5.82;;;2.17;;
43628;SDS011;56545;48.224;11.678;2022-11-20T14:22:28;4.40;;;1.42;;
43628;SDS011;56545;48.224;11.678;2022-11-20T14:25:02;4.07;;;1.45;;
43628;SDS011;56545;48.224;11.678;2022-11-20T14:27:43;3.42;;;1.58;;
43628;SDS011;56545;48.224;11.678;2022-11-20T14:30:14;2.80;;;1.17;;
43628;SDS011;56545;48.224;11.678;2022-11-20T14:32:53;3.33;;;1.52;;
43628;SDS011;56545;48.224;11.678;2022-11-20T14:35:23;2.92;;;1.40;;
43628;SDS011;56545;48.224;11.678;2022-11-20T14:37:51;2.60;;;1.38;;
43628;SDS011;56545;48.224;11.678;2022-11-20T14:40:35;2.63;;;1.30;;
43628;SDS011;56545;48.224;11.678;2022-11-20T14:43:02;3.63;;;1.20;;
43628;SDS011;56545;48.224;11.678;2022-11-20T14:48:46;4.03;;;1.80;;
43628;SDS011;56545;48.224;11.678;2022-11-20T14:56:59;4.05;;;2.13;;
43628;SDS011;56545;48.224;11.678;2022-11-20T15:01:59;4.32;;;2.00;;
43628;SDS011;56545;48.224;11.678;2022-11-20T15:04:28;4.25;;;1.83;;
43628;SDS011;56545;48.224;11.678;2022-11-20T15:06:55;3.60;;;1.50;;
43628;SDS011;56545;48.224;11.678;2022-11-20T15:09:22;3.83;;;1.90;;
43628;SDS011;56545;48.224;11.678;2022-11-20T15:11:55;2.50;;;1.33;;
43628;SDS011;56545;48.224;11.678;2022-11-20T15:14:24;5.43;;;2.20;;
43628;SDS011;56545;48.224;11.678;2022-11-20T15:16:52;7.90;;;1.65;;
43628;SDS011;56545;48.224;11.678;2022-11-20T15:19:22;2.38;;;1.20;;
43628;SDS011;56545;48.224;11.678;2022-11-20T15:21:49;2.63;;;1.20;;
43628;SDS011;56545;48.224;11.678;2022-11-20T15:24:16;3.42;;;1.42;;
43628;SDS011;56545;48.224;11.678;2022-11-20T15:26:42;2.75;;;1.13;;
43628;SDS011;56545;48.224;11.678;2022-11-20T15:29:12;2.70;;;1.20;;
43628;SDS011;56545;48.224;11.678;2022-11-20T15:31:39;2.85;;;1.20;;
43628;SDS011;56545;48.224;11.678;2022-11-20T15:34:10;1.63;;;0.98;;
43628;SDS011;56545;48.224;11.678;2022-11-20T15:36:37;2.58;;;1.17;;
43628;SDS011;56545;48.224;11.678;2022-11-20T15:39:03;2.00;;;0.95;;
43628;SDS011;56545;48.224;11.678;2022-11-20T15:41:32;2.50;;;1.08;;
43628;SDS011;56545;48.224;11.678;2022-11-20T15:43:58;1.35;;;0.73;;
43628;SDS011;56545;48.224;11.678;2022-11-20T15:46:28;1.90;;;0.80;;
43628;SDS011;56545;48.224;11.678;2022-11-20T15:51:25;3.20;;;1.00;;
43628;SDS011;56545;48.224;11.678;2022-11-20T15:53:59;3.05;;;0.90;;
43628;SDS011;56545;48.224;11.678;2022-11-20T15:56:26;1.88;;;0.80;;
43628;SDS011;56545;48.224;11.678;2022-11-20T15:58:52;3.13;;;0.88;;
43628;SDS011;56545;48.224;11.678;2022-11-20T16:01:19;2.92;;;1.00;;
43628;SDS011;56545;48.224;11.678;2022-11-20T16:03:46;2.55;;;0.90;;
43628;SDS011;56545;48.224;11.678;2022-11-20T16:06:13;2.78;;;1.00;;
43628;SDS011;56545;48.224;11.678;2022-11-20T16:08:41;1.60;;;0.88;;
43628;SDS011;56545;48.224;11.678;2022-11-20T16:11:07;2.97;;;1.17;;
43628;SDS011;56545;48.224;11.678;2022-11-20T16:13:35;2.70;;;0.98;;
43628;SDS011;56545;48.224;11.678;2022-11-20T16:16:21;1.77;;;1.00;;
43628;SDS011;56545;48.224;11.678;2022-11-20T16:18:48;2.50;;;1.00;;
43628;SDS011;56545;48.224;11.678;2022-11-20T16:21:15;2.08;;;0.90;;
43628;SDS011;56545;48.224;11.678;2022-11-20T16:23:41;2.00;;;0.90;;
43628;SDS011;56545;48.224;11.678;2022-11-20T16:26:14;2.15;;;0.82;;
43628;SDS011;56545;48.224;11.678;2022-11-20T16:28:41;2.72;;;0.98;;
43628;SDS011;56545;48.224;11.678;2022-11-20T16:31:09;1.90;;;0.80;;
43628;SDS011;56545;48.224;11.678;2022-11-20T16:33:39;2.35;;;0.90;;
43628;SDS011;56545;48.224;11.678;2022-11-20T16:36:09;4.10;;;0.93;;
43628;SDS011;56545;48.224;11.678;2022-11-20T16:38:36;2.45;;;1.00;;
43628;SDS011;56545;48.224;11.678;2022-11-20T16:41:02;3.15;;;0.90;;
43628;SDS011;56545;48.224;11.678;2022-11-20T16:43:29;2.75;;;1.00;;
43628;SDS011;56545;48.224;11.678;2022-11-20T16:45:55;3.28;;;1.35;;
43628;SDS011;56545;48.224;11.678;2022-11-20T16:48:21;3.53;;;1.35;;